createdAt,value
2019-04-13T00:02:11.041Z,20.53
2019-04-13T00:04:56.597Z,20.53
2019-04-13T00:07:23.821Z,20.00
2019-04-13T00:09:51.426Z,20.83
2019-04-13T00:12:31.811Z,20.93
2019-04-13T00:14:59.175Z,21.63
2019-04-13T00:17:26.919Z,21.47
2019-04-13T00:19:54.451Z,21.33
2019-04-13T00:22:21.709Z,22.17
2019-04-13T00:24:49.060Z,22.40
2019-04-13T00:27:16.279Z,21.50
2019-04-13T00:29:43.833Z,22.20
2019-04-13T00:32:11.428Z,21.53
2019-04-13T00:34:41.530Z,21.40
2019-04-13T00:37:08.424Z,21.73
2019-04-13T00:39:35.947Z,21.37
2019-04-13T00:42:03.164Z,21.80
2019-04-13T00:44:30.413Z,22.37
2019-04-13T00:46:57.630Z,21.87
2019-04-13T00:49:24.932Z,22.00
2019-04-13T00:51:52.417Z,21.77
2019-04-13T00:54:19.695Z,21.30
2019-04-13T00:56:47.223Z,21.10
2019-04-13T00:59:15.087Z,22.10
2019-04-13T01:01:42.647Z,21.53
2019-04-13T01:04:09.904Z,20.83
2019-04-13T01:06:37.451Z,21.10
2019-04-13T01:09:08.132Z,20.83
2019-04-13T01:11:35.655Z,21.07
2019-04-13T01:14:03.161Z,20.37
2019-04-13T01:16:31.199Z,21.07
2019-04-13T01:18:58.561Z,21.67
2019-04-13T01:21:25.879Z,20.70
2019-04-13T01:23:53.469Z,20.77
2019-04-13T01:26:20.699Z,21.07
2019-04-13T01:28:47.935Z,21.77
2019-04-13T01:31:15.507Z,19.53
2019-04-13T01:33:42.766Z,20.43
2019-04-13T01:36:10.075Z,20.50
2019-04-13T01:38:37.315Z,20.60
2019-04-13T01:41:04.539Z,18.97
2019-04-13T01:43:32.078Z,20.30
2019-04-13T01:45:59.271Z,20.73
2019-04-13T01:48:26.784Z,21.10
2019-04-13T01:50:54.349Z,19.83
2019-04-13T01:53:21.568Z,21.10
2019-04-13T01:55:48.813Z,21.37
2019-04-13T01:58:16.039Z,20.57
2019-04-13T02:00:57.644Z,20.53
2019-04-13T02:03:24.999Z,20.00
2019-04-13T02:05:56.796Z,20.00
2019-04-13T02:08:50.772Z,20.30
2019-04-13T02:11:30.289Z,21.27
2019-04-13T02:13:57.571Z,19.97
2019-04-13T02:16:25.230Z,20.57
2019-04-13T02:18:52.889Z,20.60
2019-04-13T02:21:20.449Z,20.80
2019-04-13T02:23:48.004Z,20.50
2019-04-13T02:26:15.568Z,20.53
2019-04-13T02:28:43.125Z,19.83
2019-04-13T02:31:10.380Z,21.13
2019-04-13T02:33:37.637Z,20.07
2019-04-13T02:36:04.941Z,21.37
2019-04-13T02:38:32.157Z,21.60
2019-04-13T02:40:59.884Z,21.10
2019-04-13T02:43:27.471Z,19.60
2019-04-13T02:45:55.436Z,20.40
2019-04-13T02:48:22.652Z,20.47
2019-04-13T02:50:50.311Z,22.23
2019-04-13T02:53:17.896Z,21.00
2019-04-13T02:55:45.548Z,20.67
2019-04-13T02:58:12.840Z,21.07
2019-04-13T03:00:40.105Z,20.37
2019-04-13T03:03:07.625Z,22.10
2019-04-13T03:05:46.433Z,21.33
2019-04-13T03:08:04.076Z,20.77
2019-04-13T03:10:31.289Z,19.20
2019-04-13T03:12:58.542Z,21.50
2019-04-13T03:15:40.659Z,22.03
2019-04-13T03:18:22.053Z,20.40
2019-04-13T03:20:49.264Z,21.20
2019-04-13T03:23:16.559Z,20.57
2019-04-13T03:25:44.140Z,21.30
2019-04-13T03:28:11.477Z,21.40
2019-04-13T03:30:39.134Z,21.33
2019-04-13T03:33:06.355Z,20.70
2019-04-13T03:35:33.601Z,21.23
2019-04-13T03:38:01.189Z,21.43
2019-04-13T03:40:28.751Z,21.70
2019-04-13T03:42:56.311Z,21.63
2019-04-13T03:45:23.565Z,21.73
2019-04-13T03:47:51.123Z,21.20
2019-04-13T03:50:18.376Z,20.30
2019-04-13T03:52:45.931Z,21.33
2019-04-13T03:55:13.491Z,21.13
2019-04-13T03:57:40.715Z,21.10
2019-04-13T04:00:08.171Z,21.57
2019-04-13T04:02:35.393Z,21.50
2019-04-13T04:05:02.684Z,20.73
2019-04-13T04:07:30.265Z,20.77
2019-04-13T04:09:57.823Z,19.80
2019-04-13T04:12:25.384Z,20.53
2019-04-13T04:14:52.680Z,21.63
2019-04-13T04:17:20.413Z,20.63
2019-04-13T04:19:47.817Z,20.73
2019-04-13T04:22:15.046Z,21.03
2019-04-13T04:24:42.330Z,19.73
2019-04-13T04:27:09.840Z,20.73
2019-04-13T04:29:37.083Z,20.80
2019-04-13T04:32:04.313Z,20.13
2019-04-13T04:34:31.612Z,20.53
2019-04-13T04:36:58.852Z,21.67
2019-04-13T04:39:26.484Z,20.47
2019-04-13T04:41:53.708Z,20.23
2019-04-13T04:44:20.957Z,21.37
2019-04-13T04:46:48.444Z,21.20
2019-04-13T04:49:15.712Z,22.20
2019-04-13T04:51:42.923Z,21.60
2019-04-13T04:54:10.173Z,21.33
2019-04-13T04:56:37.755Z,20.63
2019-04-13T04:59:05.014Z,21.03
2019-04-13T05:01:32.693Z,21.27
2019-04-13T05:03:59.916Z,21.80
2019-04-13T05:06:35.741Z,22.53
2019-04-13T05:08:59.205Z,20.63
2019-04-13T05:11:30.401Z,21.33
2019-04-13T05:14:00.349Z,22.80
2019-04-13T05:16:32.369Z,23.33
2019-04-13T05:19:02.520Z,21.07
2019-04-13T05:21:33.261Z,21.57
2019-04-13T05:24:01.976Z,21.50
2019-04-13T05:26:30.777Z,21.93
2019-04-13T05:28:59.328Z,22.00
2019-04-13T05:31:31.391Z,21.23
2019-04-13T05:33:59.890Z,21.53
2019-04-13T05:36:28.125Z,22.17
2019-04-13T05:38:56.232Z,21.63
2019-04-13T05:41:24.879Z,21.77
2019-04-13T05:43:58.763Z,21.13
2019-04-13T05:46:31.347Z,22.33
2019-04-13T05:49:01.870Z,22.17
2019-04-13T05:51:30.502Z,21.50
2019-04-13T05:54:01.591Z,21.97
2019-04-13T05:56:30.254Z,21.40
2019-04-13T05:59:03.317Z,22.57
2019-04-13T06:01:27.365Z,21.93
2019-04-13T06:03:55.004Z,21.23
2019-04-13T06:06:24.728Z,22.47
2019-04-13T06:08:55.509Z,22.83
2019-04-13T06:11:27.408Z,23.13
2019-04-13T06:13:58.484Z,21.87
2019-04-13T06:16:29.723Z,22.67
2019-04-13T06:18:59.870Z,23.10
2019-04-13T06:21:29.180Z,22.60
2019-04-13T06:23:59.528Z,22.60
2019-04-13T06:26:30.511Z,23.77
2019-04-13T06:28:59.617Z,23.00
2019-04-13T06:31:37.371Z,22.87
2019-04-13T06:34:14.914Z,21.97
2019-04-13T06:36:43.709Z,24.87
2019-04-13T06:39:11.934Z,22.30
2019-04-13T06:41:43.756Z,22.70
2019-04-13T06:44:10.725Z,22.10
2019-04-13T06:46:38.714Z,22.73
2019-04-13T06:49:08.054Z,21.30
2019-04-13T06:51:35.760Z,22.30
2019-04-13T06:54:06.300Z,23.57
2019-04-13T06:56:37.420Z,22.70
2019-04-13T06:59:07.259Z,23.30
2019-04-13T07:01:35.015Z,23.03
2019-04-13T07:04:03.842Z,23.90
2019-04-13T07:06:32.619Z,23.27
2019-04-13T07:09:18.617Z,23.73
2019-04-13T07:12:00.591Z,23.93
2019-04-13T07:14:29.662Z,23.90
2019-04-13T07:17:07.160Z,23.70
2019-04-13T07:19:34.473Z,24.10
2019-04-13T07:22:02.108Z,24.50
2019-04-13T07:24:29.507Z,23.87
2019-04-13T07:26:56.928Z,23.43
2019-04-13T07:29:24.464Z,23.57
2019-04-13T07:31:51.973Z,24.10
2019-04-13T07:34:19.304Z,22.87
2019-04-13T07:36:46.920Z,23.20
2019-04-13T07:39:17.333Z,23.03
2019-04-13T07:41:43.980Z,24.53
2019-04-13T07:44:17.059Z,23.47
2019-04-13T07:46:53.558Z,24.60
2019-04-13T07:49:39.557Z,24.00
2019-04-13T07:52:19.603Z,23.60
2019-04-13T07:54:47.197Z,24.27
2019-04-13T07:57:14.848Z,23.93
2019-04-13T07:59:42.076Z,25.40
2019-04-13T08:02:10.140Z,23.80
2019-04-13T08:04:37.381Z,24.53
2019-04-13T08:07:06.475Z,23.10
2019-04-13T08:09:33.868Z,25.87
2019-04-13T08:12:01.173Z,26.17
2019-04-13T08:14:32.278Z,24.80
2019-04-13T08:17:06.130Z,25.33
2019-04-13T08:19:35.676Z,25.23
2019-04-13T08:22:04.696Z,25.83
2019-04-13T08:24:32.390Z,24.73
2019-04-13T08:26:59.664Z,25.17
2019-04-13T08:29:27.220Z,26.80
2019-04-13T08:31:54.941Z,26.30
2019-04-13T08:34:24.465Z,28.00
2019-04-13T08:36:54.464Z,26.43
2019-04-13T08:39:21.983Z,27.30
2019-04-13T08:41:51.581Z,25.63
2019-04-13T08:44:19.609Z,27.77
2019-04-13T08:46:50.446Z,26.83
2019-04-13T08:49:18.124Z,24.83
2019-04-13T08:51:45.371Z,26.70
2019-04-13T08:54:12.931Z,27.20
2019-04-13T08:56:40.161Z,27.47
2019-04-13T08:59:07.689Z,26.47
2019-04-13T09:01:35.197Z,25.70
2019-04-13T09:04:03.080Z,25.77
2019-04-13T09:06:30.401Z,26.63
2019-04-13T09:09:02.416Z,28.67
2019-04-13T09:11:28.939Z,26.70
2019-04-13T09:13:56.300Z,28.37
2019-04-13T09:16:28.885Z,26.30
2019-04-13T09:19:17.093Z,27.50
2019-04-13T09:21:53.232Z,26.20
2019-04-13T09:24:19.475Z,26.13
2019-04-13T09:26:47.225Z,28.97
2019-04-13T09:29:15.226Z,27.03
2019-04-13T09:31:42.643Z,27.43
2019-04-13T09:34:19.602Z,27.57
2019-04-13T09:36:39.475Z,27.10
2019-04-13T09:39:06.822Z,27.20
2019-04-13T09:41:36.530Z,27.20
2019-04-13T09:44:19.200Z,26.13
2019-04-13T09:46:50.315Z,27.80
2019-04-13T09:49:19.801Z,27.40
2019-04-13T09:51:48.333Z,28.17
2019-04-13T09:54:16.336Z,25.60
2019-04-13T09:56:44.318Z,28.77
2019-04-13T09:59:12.564Z,26.50
2019-04-13T10:01:40.320Z,27.47
2019-04-13T10:04:10.403Z,26.47
2019-04-13T10:06:39.762Z,27.60
2019-04-13T10:09:08.611Z,25.80
2019-04-13T10:11:41.453Z,28.47
2019-04-13T10:14:17.885Z,26.30
2019-04-13T10:17:03.175Z,28.23
2019-04-13T10:19:31.742Z,26.53
2019-04-13T10:21:59.563Z,24.97
2019-04-13T10:24:38.529Z,25.00
2019-04-13T10:27:07.431Z,27.03
2019-04-13T10:29:35.464Z,28.00
2019-04-13T10:32:02.715Z,26.70
2019-04-13T10:34:30.090Z,27.73
2019-04-13T10:36:57.332Z,27.70
2019-04-13T10:39:24.601Z,28.23
2019-04-13T10:41:53.165Z,28.00
2019-04-13T10:44:23.160Z,25.13
2019-04-13T10:47:11.651Z,25.87
2019-04-13T10:49:45.873Z,26.40
2019-04-13T10:52:22.352Z,27.07
2019-04-13T10:54:49.979Z,25.17
2019-04-13T10:57:17.538Z,24.93
2019-04-13T10:59:44.791Z,24.50
2019-04-13T11:02:21.742Z,25.33
2019-04-13T11:04:43.067Z,24.80
2019-04-13T11:07:13.144Z,26.97
2019-04-13T11:09:40.879Z,24.70
2019-04-13T11:12:11.617Z,24.80
2019-04-13T11:14:40.092Z,22.83
2019-04-13T11:17:09.262Z,24.10
2019-04-13T11:19:40.283Z,22.67
2019-04-13T11:22:07.375Z,23.43
2019-04-13T11:24:35.283Z,22.87
2019-04-13T11:27:04.114Z,23.57
2019-04-13T11:29:33.192Z,24.00
2019-04-13T11:32:01.117Z,21.40
2019-04-13T11:34:30.120Z,21.83
2019-04-13T11:36:58.553Z,21.17
2019-04-13T11:39:33.985Z,22.30
2019-04-13T11:42:09.164Z,21.97
2019-04-13T11:44:47.931Z,22.17
2019-04-13T11:47:29.712Z,20.33
2019-04-13T11:50:00.433Z,19.60
2019-04-13T11:52:29.091Z,18.53
2019-04-13T11:57:40.853Z,19.80
2019-04-13T12:00:24.178Z,19.00
2019-04-13T12:02:56.860Z,18.63
2019-04-13T12:05:38.263Z,18.90
2019-04-13T12:08:21.231Z,19.47
2019-04-13T12:11:19.139Z,19.10
2019-04-13T12:13:54.050Z,18.90
2019-04-13T12:16:42.802Z,19.50
2019-04-13T12:19:48.415Z,19.33
2019-04-13T12:22:26.337Z,18.70
2019-04-13T12:24:54.984Z,20.23
2019-04-13T12:27:22.376Z,19.57
2019-04-13T12:29:50.651Z,19.47
2019-04-13T12:32:24.262Z,18.60
2019-04-13T12:34:56.491Z,19.10
2019-04-13T12:37:24.904Z,18.77
2019-04-13T12:40:03.991Z,19.77
2019-04-13T12:42:36.363Z,19.33
2019-04-13T12:45:06.966Z,19.67
2019-04-13T12:47:34.979Z,19.83
2019-04-13T12:50:03.753Z,19.27
2019-04-13T12:52:35.014Z,19.30
2019-04-13T12:55:05.984Z,19.30
2019-04-13T12:57:39.290Z,19.03
2019-04-13T13:00:09.982Z,19.33
2019-04-13T13:02:42.297Z,18.43
2019-04-13T13:05:20.256Z,18.00
2019-04-13T13:07:49.666Z,17.27
2019-04-13T13:10:17.657Z,16.97
2019-04-13T13:12:47.150Z,17.30
2019-04-13T13:15:18.493Z,17.13
2019-04-13T13:17:47.639Z,16.60
2019-04-13T13:20:17.067Z,17.27
2019-04-13T13:22:46.224Z,17.47
2019-04-13T13:25:15.454Z,17.23
2019-04-13T13:27:43.417Z,18.17
2019-04-13T13:30:11.867Z,17.80
2019-04-13T13:32:39.859Z,19.23
2019-04-13T13:35:09.117Z,19.80
2019-04-13T13:37:44.099Z,18.43
2019-04-13T13:40:15.880Z,17.67
2019-04-13T13:42:48.212Z,19.60
2019-04-13T13:45:16.481Z,18.33
2019-04-13T13:47:46.183Z,18.37
2019-04-13T13:50:16.426Z,17.03
2019-04-13T13:52:47.514Z,16.33
2019-04-13T13:55:16.228Z,17.20
2019-04-13T13:57:54.473Z,17.43
2019-04-13T14:00:32.718Z,15.97
2019-04-13T14:03:00.588Z,15.80
2019-04-13T14:05:29.072Z,15.30
2019-04-13T14:07:56.753Z,16.00
2019-04-13T14:10:24.388Z,15.83
2019-04-13T14:12:51.628Z,15.60
2019-04-13T14:15:18.919Z,14.90
2019-04-13T14:17:50.408Z,16.03
2019-04-13T14:20:18.122Z,15.60
2019-04-13T14:22:45.908Z,15.37
2019-04-13T14:25:14.357Z,14.87
2019-04-13T14:27:42.590Z,14.53
2019-04-13T14:30:11.381Z,15.57
2019-04-13T14:32:38.932Z,15.00
2019-04-13T14:35:07.287Z,14.73
2019-04-13T14:37:34.707Z,15.67
2019-04-13T14:40:03.503Z,15.93
2019-04-13T14:42:34.156Z,15.30
2019-04-13T14:45:01.847Z,15.60
2019-04-13T14:47:33.287Z,16.60
2019-04-13T14:50:02.088Z,15.87
2019-04-13T14:52:29.728Z,16.47
2019-04-13T14:55:00.212Z,16.73
2019-04-13T14:57:28.673Z,16.60
2019-04-13T15:00:00.358Z,16.03
2019-04-13T15:02:28.525Z,17.10
2019-04-13T15:04:56.258Z,15.20
2019-04-13T15:07:24.321Z,17.10
2019-04-13T15:09:52.826Z,16.30
2019-04-13T15:12:22.126Z,24.80
2019-04-13T15:14:50.032Z,19.23
2019-04-13T15:17:19.133Z,24.83
2019-04-13T15:20:03.065Z,32.93
2019-04-13T15:22:24.956Z,51.03
2019-04-13T15:24:55.128Z,51.53
2019-04-13T15:27:23.062Z,27.30
2019-04-13T15:29:52.012Z,41.47
2019-04-13T15:32:25.088Z,26.87
2019-04-13T15:34:51.197Z,26.07
2019-04-13T15:37:19.535Z,52.10
2019-04-13T15:39:49.726Z,25.00
2019-04-13T15:42:22.680Z,16.50
2019-04-13T15:44:50.707Z,21.13
2019-04-13T15:47:20.530Z,23.70
2019-04-13T15:49:46.578Z,15.77
2019-04-13T15:52:16.358Z,17.80
2019-04-13T15:54:44.473Z,16.40
2019-04-13T15:57:13.119Z,16.80
2019-04-13T15:59:42.110Z,18.57
2019-04-13T16:02:10.417Z,16.87
2019-04-13T16:04:39.549Z,16.93
2019-04-13T16:07:07.575Z,15.10
2019-04-13T16:09:57.738Z,14.53
2019-04-13T16:12:31.966Z,14.20
2019-04-13T16:15:01.131Z,15.23
2019-04-13T16:17:29.628Z,15.70
2019-04-13T16:19:59.050Z,15.50
2019-04-13T16:22:29.762Z,14.90
2019-04-13T16:25:01.021Z,14.57
2019-04-13T16:27:30.217Z,14.17
2019-04-13T16:30:17.764Z,14.30
2019-04-13T16:33:06.538Z,13.37
2019-04-13T16:35:47.321Z,14.37
2019-04-13T16:38:15.763Z,14.43
2019-04-13T16:40:43.762Z,14.57
2019-04-13T16:43:13.850Z,13.80
2019-04-13T16:45:50.598Z,13.70
2019-04-13T16:49:08.742Z,15.10
2019-04-13T16:51:49.853Z,14.67
2019-04-13T16:54:23.337Z,14.57
2019-04-13T16:57:02.362Z,13.90
2019-04-13T16:59:57.346Z,14.33
2019-04-13T17:02:36.393Z,13.73
2019-04-13T17:05:07.512Z,18.50
2019-04-13T17:07:34.708Z,20.13
2019-04-13T17:10:02.350Z,20.87
2019-04-13T17:12:35.562Z,18.53
2019-04-13T17:14:59.307Z,17.33
2019-04-13T17:17:26.566Z,17.60
2019-04-13T17:20:18.983Z,17.37
2019-04-13T17:23:04.722Z,16.63
2019-04-13T17:25:57.914Z,19.23
2019-04-13T17:29:00.203Z,18.47
2019-04-13T17:31:47.465Z,17.43
2019-04-13T17:34:21.223Z,16.57
2019-04-13T17:36:50.028Z,18.33
2019-04-13T17:39:18.723Z,18.47
2019-04-13T17:42:05.520Z,18.53
2019-04-13T17:44:35.389Z,17.80
2019-04-13T17:47:22.542Z,18.03
2019-04-13T17:50:18.699Z,18.23
2019-04-13T17:53:11.653Z,18.17
2019-04-13T17:55:52.574Z,18.63
2019-04-13T17:58:48.541Z,18.27
2019-04-13T18:01:35.375Z,17.90
2019-04-13T18:04:21.006Z,18.17
2019-04-13T18:07:03.169Z,18.67
2019-04-13T18:09:45.726Z,19.83
2019-04-13T18:12:51.280Z,20.07
2019-04-13T18:15:28.312Z,18.00
2019-04-13T18:18:06.035Z,17.07
2019-04-13T18:20:34.283Z,17.27
2019-04-13T18:23:02.520Z,16.63
2019-04-13T18:25:37.911Z,15.13
2019-04-13T18:27:59.943Z,14.87
2019-04-13T18:30:34.347Z,12.57
2019-04-13T18:32:57.419Z,12.17
2019-04-13T18:35:25.416Z,12.23
2019-04-13T18:37:53.773Z,11.97
2019-04-13T18:40:22.223Z,11.67
2019-04-13T18:43:00.740Z,10.83
2019-04-13T18:45:20.052Z,10.90
2019-04-13T18:47:49.225Z,11.47
2019-04-13T18:50:16.696Z,10.87
2019-04-13T18:52:44.505Z,10.57
2019-04-13T18:55:12.349Z,9.87
2019-04-13T18:57:40.400Z,10.47
2019-04-13T19:00:09.403Z,10.07
2019-04-13T19:02:37.733Z,10.17
2019-04-13T19:05:05.872Z,10.07
2019-04-13T19:07:33.459Z,9.87
2019-04-13T19:10:00.692Z,10.10
2019-04-13T19:12:28.545Z,9.87
2019-04-13T19:14:56.211Z,10.30
2019-04-13T19:17:23.767Z,9.20
2019-04-13T19:19:51.327Z,9.17
2019-04-13T19:22:18.887Z,9.13
2019-04-13T19:24:46.447Z,9.70
2019-04-13T19:27:14.004Z,9.83
2019-04-13T19:29:41.568Z,9.80
2019-04-13T19:32:08.791Z,9.53
2019-04-13T19:34:36.065Z,9.80
2019-04-13T19:37:03.627Z,9.40
2019-04-13T19:39:31.203Z,9.73
2019-04-13T19:41:58.419Z,9.13
2019-04-13T19:44:25.673Z,9.03
2019-04-13T19:46:53.147Z,10.13
2019-04-13T19:49:20.368Z,9.43
2019-04-13T19:52:07.848Z,9.83
2019-04-13T19:54:35.072Z,9.47
2019-04-13T19:57:02.354Z,9.80
2019-04-13T19:59:29.993Z,10.43
2019-04-13T20:01:57.582Z,9.93
2019-04-13T20:04:24.889Z,10.13
2019-04-13T20:06:52.111Z,11.80
2019-04-13T20:09:19.568Z,12.13
2019-04-13T20:11:46.792Z,11.77
2019-04-13T20:14:17.524Z,12.90
2019-04-13T20:16:43.162Z,13.77
2019-04-13T20:19:10.452Z,14.90
2019-04-13T20:21:38.021Z,14.90
2019-04-13T20:24:05.264Z,14.67
2019-04-13T20:26:32.563Z,16.33
2019-04-13T20:28:59.817Z,16.47
2019-04-13T20:31:27.027Z,16.50
2019-04-13T20:33:54.569Z,15.90
2019-04-13T20:36:24.135Z,15.20
2019-04-13T20:38:52.049Z,13.50
2019-04-13T20:41:23.457Z,14.07
2019-04-13T20:43:57.659Z,12.87
2019-04-13T20:46:21.443Z,12.70
2019-04-13T20:48:49.010Z,12.90
2019-04-13T20:51:17.107Z,12.87
2019-04-13T20:53:45.200Z,13.23
2019-04-13T20:56:12.760Z,11.57
2019-04-13T20:58:40.249Z,11.70
2019-04-13T21:01:08.358Z,11.87
2019-04-13T21:03:36.080Z,11.47
2019-04-13T21:06:04.422Z,11.17
2019-04-13T21:08:32.314Z,10.43
2019-04-13T21:10:59.656Z,10.20
2019-04-13T21:13:27.500Z,11.13
2019-04-13T21:15:55.391Z,11.27
2019-04-13T21:18:23.333Z,11.00
2019-04-13T21:20:51.058Z,10.53
2019-04-13T21:23:18.980Z,9.70
2019-04-13T21:25:46.898Z,10.10
2019-04-13T21:28:14.894Z,9.83
2019-04-13T21:30:42.529Z,9.53
2019-04-13T21:33:10.549Z,9.73
2019-04-13T21:35:38.107Z,9.63
2019-04-13T21:38:06.265Z,9.77
2019-04-13T21:40:34.129Z,9.73
2019-04-13T21:43:02.005Z,9.83
2019-04-13T21:45:29.649Z,8.97
2019-04-13T21:47:58.044Z,9.30
2019-04-13T21:50:45.930Z,8.87
2019-04-13T21:53:22.351Z,9.73
2019-04-13T21:55:50.435Z,8.73
2019-04-13T21:58:18.418Z,8.53
2019-04-13T22:01:03.945Z,9.03
2019-04-13T22:03:31.902Z,9.13
2019-04-13T22:05:59.502Z,10.17
2019-04-13T22:08:27.364Z,10.17
2019-04-13T22:10:55.143Z,9.47
2019-04-13T22:13:22.808Z,9.83
2019-04-13T22:15:50.675Z,9.70
2019-04-13T22:18:19.238Z,10.10
2019-04-13T22:20:48.859Z,10.90
2019-04-13T22:23:17.196Z,10.43
2019-04-13T22:25:45.212Z,10.70
2019-04-13T22:28:15.135Z,10.80
2019-04-13T22:30:51.944Z,10.97
2019-04-13T22:33:19.681Z,10.50
2019-04-13T22:35:54.788Z,11.80
2019-04-13T22:38:22.024Z,10.90
2019-04-13T22:40:49.630Z,11.37
2019-04-13T22:43:17.431Z,10.73
2019-04-13T22:45:44.821Z,10.67
2019-04-13T22:48:22.407Z,13.63
2019-04-13T22:50:57.163Z,13.40
2019-04-13T22:53:44.360Z,13.73
2019-04-13T22:56:20.923Z,15.50
2019-04-13T22:58:49.389Z,15.50
2019-04-13T23:01:22.419Z,15.33
2019-04-13T23:03:50.393Z,16.20
2019-04-13T23:06:18.450Z,17.10
2019-04-13T23:08:46.692Z,15.13
2019-04-13T23:11:14.761Z,16.40
2019-04-13T23:13:42.825Z,16.07
2019-04-13T23:16:10.690Z,19.17
2019-04-13T23:18:38.545Z,19.10
2019-04-13T23:21:05.844Z,18.47
2019-04-13T23:23:33.796Z,17.57
2019-04-13T23:26:01.564Z,18.47
2019-04-13T23:28:29.635Z,18.77
2019-04-13T23:30:57.483Z,18.87
2019-04-13T23:33:25.648Z,18.47
2019-04-13T23:35:54.027Z,19.33
2019-04-13T23:38:22.403Z,19.93
2019-04-13T23:40:50.612Z,20.07
2019-04-13T23:43:18.979Z,19.33
2019-04-13T23:45:47.096Z,20.67
2019-04-13T23:48:15.651Z,20.07
2019-04-13T23:50:43.778Z,19.40
2019-04-13T23:53:11.895Z,20.27
2019-04-13T23:55:45.141Z,19.60
2019-04-13T23:58:34.452Z,19.33
